Flight Track Log - Related Links

Times and Time Zones

All times are in EDT time to prevent confusion due to time zone crossing. See the SWA2166 flight status page for this flight to view local times or setup timezone preferences in your user account.

Time Position Orientation Groundspeed Altitude Reporting Facility
EDT Latitude Longitude Course Direction KTS MPH feet Rate Location/Type
Mon 09:34:42 PM 29.6178 -95.2792 164° South 161 185 2,700  Level Houston Center
Mon 09:35:37 PM 29.6628 -95.2450 33° Northeast 287 330 4,800 1,624 Climbing Houston Center
Mon 09:36:07 PM 29.6964 -95.2503 352° North 280 322 5,000 197 Climbing Houston Center
Mon 09:36:38 PM 29.7439 -95.2592 351° North 300 345 5,000 194 Level Houston Center
Mon 09:37:09 PM 29.7797 -95.2672 349° North 299 344 5,200 2,239 Climbing Houston Center
Mon 09:37:45 PM 29.8392 -95.2908 341° North 312 359 7,500 3,246 Climbing Houston Center
Mon 09:38:10 PM 29.8625 -95.2997 342° North 314 361 8,500 2,930 Climbing Houston Center
Mon 09:39:11 PM 29.9578 -95.2831 North 347 399 11,700 3,443 Climbing Houston Center
Mon 09:40:12 PM 30.0586 -95.2558 13° North 365 420 15,500 3,246 Climbing Houston Center
Mon 09:41:13 PM 30.1542 -95.1981 28° Northeast 392 451 18,300 2,852 Climbing Houston Center
Mon 09:42:14 PM 30.2486 -95.1261 33° Northeast 400 460 21,300 3,148 Climbing Houston Center
Mon 09:43:15 PM 30.3672 -95.0350 34° Northeast 420 483 24,700 2,927 Climbing Houston Center
Mon 09:44:17 PM 30.4672 -94.9561 34° Northeast 431 496 27,300 2,293 Climbing Houston Center
Mon 09:45:18 PM 30.5731 -94.8769 33° Northeast 445 512 29,400 2,016 Climbing Houston Center
Mon 09:46:19 PM 30.6706 -94.7786 41° Northeast 479 551 31,400 1,967 Climbing Houston Center
Mon 09:47:20 PM 30.7475 -94.6525 55° Northeast 483 556 33,400 2,016 Climbing Houston Center
Mon 09:48:21 PM 30.8203 -94.5253 56° Northeast 478 550 35,500 1,770 Climbing Houston Center
Mon 09:49:22 PM 30.8944 -94.3989 56° Northeast 476 548 37,000 1,426 Climbing Houston Center
Mon 09:50:23 PM 30.9678 -94.2706 56° Northeast 477 549 38,400 1,279 Climbing Houston Center
Mon 09:51:24 PM 31.0561 -94.1186 56° Northeast 474 545 39,600 1,082 Climbing Houston Center
Mon 09:52:25 PM 31.1339 -93.9853 56° Northeast 491 565 40,600 634 Climbing Houston Center
Mon 09:53:27 PM 31.1978 -93.8750 56° Northeast 492 566 40,900 195 Climbing Houston Center
Mon 09:54:28 PM 31.2864 -93.7239 56° Northeast 489 563 41,000  Climbing Houston Center
Mon 09:55:29 PM 31.3644 -93.5844 57° Northeast 488 562 40,900  Descending Houston Center
Mon 09:56:30 PM 31.4361 -93.4606 56° Northeast 485 558 41,000 49 Climbing Houston Center
Mon 09:57:31 PM 31.5122 -93.3278 56° Northeast 487 560 41,000 -49 Level Houston Center
Mon 09:58:32 PM 31.5908 -93.1903 56° Northeast 485 558 40,900 -49 Descending Houston Center
Mon 09:59:33 PM 31.6650 -93.0586 56° Northeast 484 557 40,900  Level Houston Center
Mon 10:00:34 PM 31.7389 -92.9264 57° Northeast 483 556 40,900  Level Houston Center
Mon 10:01:35 PM 31.8136 -92.7942 56° Northeast 484 557 40,900  Level Houston Center
Mon 10:02:36 PM 31.8867 -92.6631 57° Northeast 481 554 40,900  Level Houston Center
Mon 10:03:37 PM 31.9608 -92.5303 57° Northeast 485 558 40,900  Level Houston Center
Mon 10:04:38 PM 32.0347 -92.3978 57° Northeast 485 558 40,900  Level Houston Center
Mon 10:05:39 PM 32.1094 -92.2639 57° Northeast 488 562 40,900  Level Houston Center
Mon 10:06:40 PM 32.1831 -92.1300 57° Northeast 489 563 40,900 49 Level Houston Center
Mon 10:07:41 PM 32.2706 -91.9675 57° Northeast 491 565 41,000 49 Climbing Houston Center
Mon 10:08:42 PM 32.3447 -91.8344 57° Northeast 487 560 41,000  Level Houston Center
Mon 10:09:43 PM 32.4183 -91.6981 57° Northeast 490 564 41,000  Level Houston Center
Mon 10:10:44 PM 32.4931 -91.5592 57° Northeast 489 563 41,000  Level Memphis Center
Mon 10:11:44 PM 32.5653 -91.4222 58° Northeast 484 557 41,000  Level Memphis Center
Mon 10:12:44 PM 32.6350 -91.2897 58° Northeast 479 551 41,000  Level Memphis Center
Mon 10:13:44 PM 32.7092 -91.1597 56° Northeast 474 545 41,000  Level Memphis Center
Mon 10:14:44 PM 32.7808 -91.0294 57° Northeast 474 545 41,000  Level Memphis Center
Mon 10:15:44 PM 32.8503 -90.8939 59° Northeast 474 545 41,000  Level Memphis Center
Mon 10:16:44 PM 32.9175 -90.7706 57° Northeast 484 557 41,000  Level Memphis Center
Mon 10:17:44 PM 32.9889 -90.6372 57° Northeast 484 557 41,000  Level Memphis Center
Mon 10:18:44 PM 33.0600 -90.5036 58° Northeast 479 551 41,000  Level Memphis Center
Mon 10:19:44 PM 33.1333 -90.3697 57° Northeast 479 551 41,000  Level Memphis Center
Mon 10:20:44 PM 33.2042 -90.2331 58° Northeast 479 551 41,000  Level Memphis Center
Mon 10:21:44 PM 33.2811 -90.0839 58° Northeast 479 551 41,000  Level Memphis Center
Mon 10:22:44 PM 33.3539 -89.9469 58° Northeast 479 551 41,000  Level Memphis Center
Mon 10:23:44 PM 33.4242 -89.8097 58° Northeast 479 551 41,000  Level Memphis Center
Mon 10:24:44 PM 33.4925 -89.6747 59° Northeast 479 551 41,000  Level Memphis Center
Mon 10:25:44 PM 33.5647 -89.5369 58° Northeast 479 551 41,000  Level Memphis Center
Mon 10:26:44 PM 33.6347 -89.4017 58° Northeast 479 551 41,000  Level Memphis Center
Mon 10:27:44 PM 33.7067 -89.2611 58° Northeast 479 551 41,000  Level Memphis Center
Mon 10:28:44 PM 33.7764 -89.1253 58° Northeast 479 551 41,000  Level Memphis Center
Mon 10:29:44 PM 33.8456 -88.9792 60° Northeast 489 563 41,000  Level Memphis Center
Mon 10:30:44 PM 33.9131 -88.8403 60° Northeast 489 563 41,000  Level Memphis Center
Mon 10:31:44 PM 33.9783 -88.7214 56° Northeast 483 556 41,000  Level Memphis Center
Mon 10:32:44 PM 34.0472 -88.5822 59° Northeast 477 549 41,000  Level Memphis Center
Mon 10:33:44 PM 34.1181 -88.4403 59° Northeast 477 549 41,000  Level Memphis Center
Mon 10:34:44 PM 34.1869 -88.3006 59° Northeast 477 549 41,000  Level Memphis Center
Mon 10:35:44 PM 34.2575 -88.1558 59° Northeast 483 556 41,000  Level Memphis Center
Mon 10:36:44 PM 34.3217 -88.0183 61° Northeast 485 558 41,000  Level Memphis Center
Mon 10:37:44 PM 34.3900 -87.8806 59° Northeast 485 558 41,000  Level Memphis Center
Mon 10:38:44 PM 34.4603 -87.7400 59° Northeast 480 552 41,000  Level Memphis Center
Mon 10:40:53 PM 34.6222 -87.4236 58° Northeast 495 570 41,000  Level Atlanta Center
Mon 10:41:53 PM 34.6864 -87.2822 61° Northeast 482 555 41,000  Level Atlanta Center
Mon 10:42:53 PM 34.7550 -87.1408 59° Northeast 482 555 41,000  Level Atlanta Center
Mon 10:43:53 PM 34.8231 -86.9967 60° Northeast 482 555 41,000  Level Atlanta Center
Mon 10:44:53 PM 34.8911 -86.8547 60° Northeast 482 555 41,000  Level Atlanta Center
Mon 10:45:53 PM 34.9592 -86.7100 60° Northeast 482 555 41,000  Level Atlanta Center
Mon 10:46:53 PM 35.0267 -86.5675 60° Northeast 482 555 41,000  Level Atlanta Center
Mon 10:47:53 PM 35.0942 -86.4275 59° Northeast 490 564 41,000  Level Atlanta Center
Mon 10:48:53 PM 35.1617 -86.2844 60° Northeast 484 557 41,000  Level Atlanta Center
Mon 10:49:53 PM 35.2247 -86.1389 62° Northeast 479 551 41,000  Level Atlanta Center
Mon 10:50:53 PM 35.2894 -86.0006 60° Northeast 472 543 41,000  Level Atlanta Center
Mon 10:51:53 PM 35.3586 -85.8569 59° Northeast 472 543 41,000  Level Atlanta Center
Mon 10:52:53 PM 35.4144 -85.7333 61° Northeast 461 531 41,000  Level Atlanta Center
Mon 10:53:53 PM 35.4811 -85.5919 60° Northeast 461 531 41,000  Level Atlanta Center
Mon 10:54:53 PM 35.5433 -85.4528 61° Northeast 461 531 41,000  Level Atlanta Center
Mon 10:55:53 PM 35.6094 -85.3108 60° Northeast 461 531 41,000  Level Atlanta Center
Mon 10:56:53 PM 35.6733 -85.1711 61° Northeast 461 531 41,000  Level Atlanta Center
Mon 10:57:53 PM 35.7353 -85.0314 61° Northeast 461 531 41,000  Level Atlanta Center
Mon 10:58:53 PM 35.8050 -84.8836 60° Northeast 468 539 41,000  Level Atlanta Center
Mon 10:59:53 PM 35.8686 -84.7383 62° Northeast 483 556 41,000  Level Atlanta Center
Mon 11:00:53 PM 35.9381 -84.5850 61° Northeast 470 541 41,000  Level Atlanta Center
Mon 11:01:53 PM 36.0014 -84.4392 62° Northeast 470 541 41,000  Level Atlanta Center
Mon 11:02:53 PM 36.0664 -84.2956 61° Northeast 475 547 41,000  Level Atlanta Center
Mon 11:03:53 PM 36.1208 -84.1672 62° Northeast 475 547 41,000  Level Atlanta Center
Mon 11:04:53 PM 36.1833 -84.0233 62° Northeast 470 541 41,000  Level Atlanta Center
Mon 11:05:53 PM 36.2481 -83.8817 60° Northeast 470 541 41,000  Level Atlanta Center
Mon 11:06:53 PM 36.3103 -83.7347 62° Northeast 470 541 41,000  Level Atlanta Center
Mon 11:07:53 PM 36.3744 -83.5900 61° Northeast 470 541 41,000  Level Atlanta Center
Mon 11:08:31 PM 36.4153 -83.4922 63° Northeast 472 543 41,000  Level Indianapolis Center
Mon 11:09:32 PM 36.4781 -83.3481 62° Northeast 474 545 41,000  Level Indianapolis Center
Mon 11:10:33 PM 36.5411 -83.2028 62° Northeast 479 551 41,000  Level Indianapolis Center
Mon 11:11:34 PM 36.6028 -83.0569 62° Northeast 478 550 41,000  Level Indianapolis Center
Mon 11:12:36 PM 36.6642 -82.9106 62° Northeast 483 556 41,000  Level Indianapolis Center
Mon 11:13:37 PM 36.7353 -82.7411 62° Northeast 478 550 41,000  Level Indianapolis Center
Mon 11:14:38 PM 36.7978 -82.5950 62° Northeast 482 555 41,000  Level Indianapolis Center
Mon 11:15:39 PM 36.8583 -82.4483 63° Northeast 480 552 41,000  Level Indianapolis Center
Mon 11:16:41 PM 36.9214 -82.3028 62° Northeast 479 551 41,000  Level Indianapolis Center
Mon 11:17:42 PM 36.9828 -82.1561 62° Northeast 476 548 41,000  Level Indianapolis Center
Mon 11:18:43 PM 37.0433 -82.0086 63° Northeast 478 550 41,000  Level Indianapolis Center
Mon 11:19:44 PM 37.1044 -81.8611 63° Northeast 478 550 41,000  Level Indianapolis Center
Mon 11:20:45 PM 37.1750 -81.6872 63° Northeast 479 551 41,000  Level Indianapolis Center
Mon 11:21:47 PM 37.2367 -81.5378 63° Northeast 481 554 41,000  Level Indianapolis Center
Mon 11:22:48 PM 37.2961 -81.3889 63° Northeast 477 549 41,000  Level Indianapolis Center
Mon 11:23:49 PM 37.3486 -81.2597 63° Northeast 478 550 41,000  Level Indianapolis Center
Mon 11:24:50 PM 37.4178 -81.0850 63° Northeast 479 551 41,000  Level Indianapolis Center
Mon 11:25:51 PM 37.4758 -80.9397 63° Northeast 478 550 41,000  Level Indianapolis Center
Mon 11:27:02 PM 37.5467 -80.7575 64° Northeast 458 527 41,000  Level Washington Center
Mon 11:28:02 PM 37.6006 -80.6222 63° Northeast 473 544 41,000  Level Washington Center
Mon 11:29:02 PM 37.6631 -80.4742 62° Northeast 473 544 41,000  Level Washington Center
Mon 11:30:02 PM 37.7214 -80.3203 64° Northeast 478 550 41,000  Level Washington Center
Mon 11:31:02 PM 37.7814 -80.1664 64° Northeast 478 550 41,000  Level Washington Center
Mon 11:32:02 PM 37.8461 -79.9994 64° Northeast 478 550 41,000  Level Washington Center
Mon 11:33:02 PM 37.9058 -79.8503 63° Northeast 478 550 41,000  Level Washington Center
Mon 11:34:02 PM 37.9675 -79.6983 63° Northeast 478 550 41,000  Level Washington Center
Mon 11:35:01 PM 38.0247 -79.5433 65° Northeast 478 550 41,000  Level Washington Center
Mon 11:36:02 PM 38.0839 -79.3881 64° Northeast 478 550 41,000  Level Washington Center
Mon 11:37:01 PM 38.1364 -79.2481 64° Northeast 483 556 41,000 -150 Level Washington Center
Mon 11:38:02 PM 38.1931 -79.0950 65° Northeast 483 556 40,700 -1,350 Descending Washington Center
Mon 11:39:01 PM 38.2517 -78.9417 64° Northeast 483 556 38,300 -2,773 Descending Washington Center
Mon 11:40:01 PM 38.3064 -78.7694 68° East 483 556 35,200 -3,174 Descending Washington Center
Mon 11:41:02 PM 38.3667 -78.6106 64° Northeast 483 556 31,900 -3,025 Descending Washington Center
Mon 11:42:02 PM 38.4250 -78.4514 65° Northeast 483 556 29,100 -2,750 Descending Washington Center
Mon 11:43:02 PM 38.4825 -78.2997 64° Northeast 483 556 26,400 -2,600 Descending Washington Center
Mon 11:44:02 PM 38.5358 -78.1531 65° Northeast 470 541 23,900 -2,521 Descending Washington Center
Mon 11:45:01 PM 38.5867 -78.0114 65° Northeast 453 521 21,400 -2,420 Descending Washington Center
Mon 11:46:01 PM 38.6353 -77.8719 66° East 436 502 19,100 -1,200 Descending Washington Center
Mon 11:47:01 PM 38.6483 -77.7289 83° East 424 488 19,000 -50 Descending Washington Center
Mon 11:48:01 PM 38.6667 -77.5833 81° East 409 471 19,000 -1,100 Level Potomac TRACON
Mon 11:49:01 PM 38.6667 -77.4333 90° East 392 451 16,800 -1,632 Descending Potomac TRACON
Mon 11:49:55 PM 38.6667 -77.3167 90° East 394 453 15,900 -1,238 Descending Potomac TRACON
Mon 11:51:07 PM 38.6833 -77.1500 83° East 376 433 14,200 -1,773 Descending Potomac TRACON
Mon 11:52:07 PM 38.6833 -77.0167 90° East 374 430 12,000 -2,000 Descending Potomac TRACON
Mon 11:53:01 PM 38.7000 -76.9000 80° East 360 414 10,400 -1,222 Descending Potomac TRACON
Mon 11:53:55 PM 38.7000 -76.8000 90° East 323 372 9,800 -789 Descending Potomac TRACON
Mon 11:54:55 PM 38.7167 -76.7000 78° East 305 351 8,900 -1,211 Descending Potomac TRACON
Mon 11:55:49 PM 38.7667 -76.6333 46° Northeast 292 336 7,500 -1,526 Descending Potomac TRACON
Mon 11:56:49 PM 38.8333 -76.6500 349° North 261 300 6,000 -1,316 Descending Potomac TRACON
Mon 11:57:43 PM 38.9000 -76.6833 339° North 261 300 5,000 -1,053 Descending Potomac TRACON
Mon 11:58:43 PM 38.9667 -76.7167 339° North 265 305 4,000 -600 Descending Potomac TRACON
Mon 11:59:43 PM 39.0167 -76.7667 322° Northwest 223 257 3,800 -550 Descending Potomac TRACON
Tue 12:00:43 AM 39.0667 -76.8167 322° Northwest 220 253 2,900 -524 Descending Potomac TRACON
Tue 12:01:49 AM 39.1167 -76.8333 346° North 196 226 2,700 -450 Descending Potomac TRACON
Tue 12:02:43 AM 39.1667 -76.8167 14° North 200 230 2,000 -722 Descending Potomac TRACON
Tue 12:03:37 AM 39.1833 -76.7667 67° East 189 217 1,400 -750 Descending Potomac TRACON
Tue 12:04:43 AM 39.1833 -76.7167 90° East 143 165 500 -818 Descending Potomac TRACON
Tue 12:06:00 AM 39.1667 -76.6667 43° Northeast  Level FlightAware Approximate
Tue 12:13:00 AM 39.1754 -76.6683 43° Northeast  Level Estimated
Tue 12:14:00 AM 39.1754 -76.6683 43° Northeast  Level Estimated
Tue 12:15:00 AM 39.1754 -76.6683 43° Northeast  Level Estimated
Tue 12:16:00 AM 39.1754 -76.6683 43° Northeast  Level Estimated
Tue 12:17:00 AM 39.1754 -76.6683 43° Northeast  Level Estimated

Login

Don't have an account? Register now (free) for customized features, flight alerts, and more!